Time;durP1;ratioP1;P1;durP2;ratioP2;P2;SDS_P1;SDS_P2;PMS_P1;PMS_P2;Temp;Humidity;BMP_temperature;BMP_pressure;BME280_temperature;BME280_humidity;BME280_pressure;Samples;Min_cycle;Max_cycle;Signal;HPM_P1;HPM_P2
2022/11/13 00:01:19;;;;;;;9.13;4.07;;;;;;;10.12;100.00;101553.69;5147560;27;20119;-92
2022/11/13 00:03:46;;;;;;;9.07;4.03;;;;;;;9.65;100.00;101499.78;5148758;27;20054;-92
2022/11/13 00:06:14;;;;;;;8.65;3.78;;;;;;;10.04;100.00;101548.63;5146129;27;20050;-91
2022/11/13 00:08:41;;;;;;;8.18;3.03;;;;;;;9.66;100.00;101514.56;5141003;27;20046;-92
2022/11/13 00:11:19;;;;;;;9.30;3.80;;;;;;;9.92;100.00;101569.84;5141144;27;20059;-92
2022/11/13 00:13:47;;;;;;;8.95;3.42;;;;;;;9.86;100.00;101565.56;5146375;27;20384;-92
2022/11/13 00:16:20;;;;;;;9.25;3.60;;;;;;;9.71;100.00;101548.47;5147823;27;20670;-92
2022/11/13 00:18:47;;;;;;;7.03;2.92;;;;;;;9.82;100.00;101550.84;5143614;27;20437;-92
2022/11/13 00:21:19;;;;;;;9.23;4.13;;;;;;;9.57;100.00;101522.59;5143601;27;20050;-93
2022/11/13 00:23:46;;;;;;;9.10;4.60;;;;;;;9.48;100.00;101512.34;5141972;27;20502;-92
2022/11/13 00:26:17;;;;;;;9.23;4.00;;;;;;;9.46;100.00;101520.19;5150955;27;20290;-92
2022/11/13 00:28:44;;;;;;;9.60;3.78;;;;;;;9.27;100.00;101496.19;5151500;27;20042;-92
2022/11/13 00:31:13;;;;;;;8.55;3.80;;;;;;;9.62;100.00;101559.97;5149155;27;20050;-92
2022/11/13 00:33:41;;;;;;;9.43;3.92;;;;;;;9.62;100.00;101559.97;5136614;27;20050;-92
2022/11/13 00:36:28;;;;;;;7.65;3.05;;;;;;;9.55;100.00;101554.91;5134070;27;20087;-91
2022/11/13 00:38:55;;;;;;;7.63;3.47;;;;;;;9.20;100.00;101505.03;5142780;27;20119;-91
2022/11/13 00:41:23;;;;;;;9.15;3.80;;;;;;;9.54;100.00;101572.31;5141513;27;20472;-92
2022/11/13 00:43:50;;;;;;;9.60;4.35;;;;;;;9.23;100.00;101527.66;5146001;27;20047;-92
2022/11/13 00:46:18;;;;;;;9.07;4.10;;;;;;;9.52;100.00;101576.72;5144016;27;20039;-91
2022/11/13 00:48:45;;;;;;;6.85;2.90;;;;;;;9.35;100.00;101544.81;5137421;27;20546;-92
2022/11/13 00:51:11;;;;;;;6.82;2.80;;;;;;;9.53;100.00;101564.53;5146633;27;20432;-92
2022/11/13 00:53:38;;;;;;;8.82;3.53;;;;;;;9.16;100.00;101506.00;5143610;27;20099;-92
2022/11/13 00:56:05;;;;;;;7.53;2.63;;;;;;;9.58;100.00;101554.81;5135887;27;20116;-92
2022/11/13 00:58:32;;;;;;;8.05;3.45;;;;;;;9.68;100.00;101580.78;5145567;27;20051;-92
2022/11/13 01:01:08;;;;;;;8.38;2.92;;;;;;;9.82;100.00;101569.16;5141482;27;20046;-92
2022/11/13 01:03:36;;;;;;;8.00;3.38;;;;;;;9.55;100.00;101541.84;5138046;27;20043;-92
2022/11/13 01:06:11;;;;;;;10.07;3.47;;;;;;;9.66;100.00;101540.69;5147631;27;20175;-92
2022/11/13 01:08:38;;;;;;;8.40;3.67;;;;;;;9.98;100.00;101573.16;5149234;27;20421;-92
2022/11/13 01:11:11;;;;;;;8.73;3.97;;;;;;;10.11;100.00;101570.28;5139980;27;20058;-92
2022/11/13 01:13:43;;;;;;;9.45;3.38;;;;;;;10.06;100.00;101550.31;5147794;27;20054;-91
2022/11/13 01:16:12;;;;;;;8.02;3.30;;;;;;;10.09;100.00;101544.13;5150988;27;20446;-92
2022/11/13 01:18:40;;;;;;;9.88;4.05;;;;;;;9.85;100.00;101506.31;5137113;27;20051;-92
2022/11/13 01:21:18;;;;;;;10.07;4.32;;;;;;;10.22;100.00;101548.22;5135226;27;20054;-92
2022/11/13 01:23:46;;;;;;;12.88;4.53;;;;;;;9.97;100.00;101486.84;5142314;27;20539;-92
2022/11/13 01:26:12;;;;;;;12.10;5.25;;;;;;;10.40;100.00;101557.41;5152589;27;20046;-92
2022/11/13 01:28:40;;;;;;;10.20;4.47;;;;;;;10.54;100.00;101562.31;5144382;27;20057;-92
2022/11/13 01:31:11;;;;;;;11.98;4.50;;;;;;;10.45;100.00;101549.47;5133112;27;20061;-92
2022/11/13 01:33:38;;;;;;;12.45;4.85;;;;;;;10.30;100.00;101507.91;5144964;27;20499;-93
2022/11/13 01:36:15;;;;;;;12.93;5.30;;;;;;;10.17;100.00;101484.63;5131559;27;20353;-93
2022/11/13 01:38:42;;;;;;;9.43;4.78;;;;;;;10.49;100.00;101543.25;5148522;27;20099;-92
2022/11/13 01:41:16;;;;;;;10.90;4.80;;;;;;;10.59;100.00;101549.97;5150769;27;20111;-92
2022/11/13 01:43:49;;;;;;;11.20;5.65;;;;;;;10.42;100.00;101512.88;5132342;27;20051;-92
2022/11/13 01:46:30;;;;;;;9.77;4.85;;;;;;;10.70;100.00;101548.84;5146155;27;20050;-92
2022/11/13 01:49:00;;;;;;;11.10;4.70;;;;;;;10.64;100.00;101561.19;5152075;27;20095;-92
2022/11/13 01:51:33;;;;;;;11.57;5.68;;;;;;;10.55;100.00;101556.19;5143193;27;20054;-92
2022/11/13 01:54:03;;;;;;;11.90;4.07;;;;;;;10.47;100.00;101523.25;5133566;27;20110;-92
2022/11/13 01:56:30;;;;;;;10.88;4.28;;;;;;;10.50;100.00;101512.66;5147156;27;20047;-91
2022/11/13 01:59:03;;;;;;;8.40;3.58;;;;;;;10.65;100.00;101541.09;5146930;27;20043;-92
2022/11/13 02:01:30;;;;;;;8.48;3.85;;;;;;;10.38;100.00;101508.63;5139755;27;20055;-92
2022/11/13 02:03:57;;;;;;;10.30;3.85;;;;;;;10.45;100.00;101523.28;5137967;27;20066;-92
2022/11/13 02:06:29;;;;;;;12.95;4.78;;;;;;;10.36;100.00;101518.28;5152452;27;20050;-92
2022/11/13 02:08:56;;;;;;;10.13;4.05;;;;;;;10.41;100.00;101527.72;5152190;27;20075;-92
2022/11/13 02:11:24;;;;;;;8.60;4.05;;;;;;;10.52;100.00;101526.63;5151601;27;20111;-92
2022/11/13 02:13:50;;;;;;;10.02;4.50;;;;;;;10.35;100.00;101512.16;5138563;27;20100;-91
2022/11/13 02:16:19;;;;;;;7.82;3.75;;;;;;;10.23;100.00;101467.91;5143139;27;20051;-92
2022/11/13 02:18:46;;;;;;;8.02;3.47;;;;;;;10.68;100.00;101535.78;5132032;27;20043;-92
2022/11/13 02:21:23;;;;;;;9.82;4.13;;;;;;;10.64;100.00;101542.00;5150350;27;20050;-91
2022/11/13 02:24:19;;;;;;;8.57;3.42;;;;;;;10.47;100.00;101491.81;5151768;27;20074;-92
2022/11/13 02:26:49;;;;;;;8.35;3.97;;;;;;;10.53;100.00;101517.84;5131935;27;20059;-92
2022/11/13 02:29:16;;;;;;;8.10;3.95;;;;;;;10.60;100.00;101514.16;5146308;27;20043;-92
2022/11/13 02:31:43;;;;;;;9.98;3.60;;;;;;;10.38;100.00;101488.53;5144654;27;20047;-92
2022/11/13 02:34:09;;;;;;;10.90;3.95;;;;;;;10.59;100.00;101497.59;5151055;27;20043;-92
2022/11/13 02:36:36;;;;;;;8.43;3.70;;;;;;;10.56;100.00;101497.69;5138089;27;20055;-91
2022/11/13 02:39:09;;;;;;;8.90;3.72;;;;;;;10.44;100.00;101485.75;5138790;27;20547;-92
2022/11/13 02:41:37;;;;;;;10.25;3.60;;;;;;;10.45;100.00;101492.72;5145952;27;20054;-92
2022/11/13 02:44:05;;;;;;;10.40;3.88;;;;;;;10.53;100.00;101505.59;5142347;27;20047;-91
2022/11/13 02:46:32;;;;;;;10.77;3.65;;;;;;;10.45;100.00;101494.47;5147223;27;20095;-91
2022/11/13 02:48:59;;;;;;;9.70;3.63;;;;;;;10.23;100.00;101476.66;5145669;27;20075;-92
2022/11/13 02:51:25;;;;;;;10.30;3.65;;;;;;;10.39;100.00;101519.06;5145254;27;20046;-93
2022/11/13 02:53:52;;;;;;;7.82;3.72;;;;;;;10.18;100.00;101483.75;5145079;27;20046;-92
2022/11/13 02:56:19;;;;;;;8.27;2.78;;;;;;;10.31;100.00;101499.16;5144870;27;20055;-92
2022/11/13 02:58:46;;;;;;;9.98;3.40;;;;;;;10.43;100.00;101515.47;5152407;27;20115;-92
2022/11/13 03:01:12;;;;;;;10.15;3.17;;;;;;;10.27;100.00;101486.16;5148272;27;20408;-93
2022/11/13 03:03:39;;;;;;;7.40;2.60;;;;;;;10.43;100.00;101507.59;5141094;27;20130;-93
2022/11/13 03:06:23;;;;;;;6.20;2.60;;;;;;;10.41;100.00;101488.47;5141385;27;20160;-92
2022/11/13 03:08:50;;;;;;;10.98;3.72;;;;;;;10.52;100.00;101482.09;5134691;27;20047;-92
2022/11/13 03:11:16;;;;;;;12.23;4.30;;;;;;;10.68;100.00;101495.63;5143105;27;20043;-92
2022/11/13 03:13:43;;;;;;;11.73;3.80;;;;;;;10.53;100.00;101468.94;5151613;27;20046;-92
2022/11/13 03:16:13;;;;;;;9.05;3.55;;;;;;;10.76;100.00;101485.81;5144843;27;20412;-92
2022/11/13 03:18:40;;;;;;;9.82;3.30;;;;;;;10.68;100.00;101475.56;5154192;27;20440;-91
2022/11/13 03:21:10;;;;;;;8.77;3.30;;;;;;;10.82;100.00;101497.00;5147780;27;20054;-91
2022/11/13 03:23:38;;;;;;;6.78;3.05;;;;;;;10.85;100.00;101500.44;5143907;27;20042;-92
2022/11/13 03:26:07;;;;;;;10.57;4.07;;;;;;;10.73;100.00;101478.03;5155454;27;20042;-92
2022/11/13 03:28:34;;;;;;;8.30;3.47;;;;;;;10.94;100.00;101508.94;5142755;27;20053;-92
2022/11/13 03:31:02;;;;;;;11.98;3.88;;;;;;;10.98;100.00;101502.69;5148893;27;20090;-92
2022/11/13 03:33:29;;;;;;;10.73;3.85;;;;;;;10.79;100.00;101473.50;5135873;27;20043;-92
2022/11/13 03:35:56;;;;;;;8.25;3.38;;;;;;;11.10;100.00;101512.00;5136322;27;20047;-93
2022/11/13 03:38:23;;;;;;;10.57;4.35;;;;;;;10.92;100.00;101470.56;5148430;27;20046;-92
2022/11/13 03:40:50;;;;;;;10.75;3.65;;;;;;;10.97;100.00;101458.19;5144667;27;20047;-92
2022/11/13 03:43:18;;;;;;;7.65;3.33;;;;;;;11.21;100.00;101480.25;5148888;27;20479;-92
2022/11/13 03:45:46;;;;;;;9.85;4.35;;;;;;;11.31;100.00;101497.41;5136186;27;20043;-92
2022/11/13 03:48:14;;;;;;;13.10;5.03;;;;;;;11.14;100.00;101465.59;5146394;27;20110;-92
2022/11/13 03:50:47;;;;;;;10.93;3.72;;;;;;;11.38;100.00;101488.50;5135658;27;20055;-92
2022/11/13 03:53:14;;;;;;;7.82;3.60;;;;;;;11.45;100.00;101478.66;5135403;27;20054;-92
2022/11/13 03:55:42;;;;;;;12.35;5.63;;;;;;;11.43;100.00;101484.88;5154371;27;20057;-92
2022/11/13 03:58:08;;;;;;;9.35;4.07;;;;;;;11.29;100.00;101446.78;5152885;27;20051;-92
2022/11/13 04:00:36;;;;;;;9.07;4.13;;;;;;;11.37;100.00;101455.28;5152240;27;20103;-91
2022/11/13 04:03:03;;;;;;;13.32;4.10;;;;;;;11.36;100.00;101445.69;5152629;27;20046;-92
2022/11/13 04:05:30;;;;;;;8.38;3.40;;;;;;;11.40;100.00;101456.94;5152411;27;20107;-91
2022/11/13 04:07:57;;;;;;;10.10;3.85;;;;;;;11.49;100.00;101475.06;5153659;27;20046;-91
2022/11/13 04:10:24;;;;;;;9.38;3.35;;;;;;;11.52;100.00;101474.09;5153853;27;20561;-91
2022/11/13 04:12:51;;;;;;;11.60;4.60;;;;;;;11.42;100.00;101439.44;5148189;27;20042;-91
2022/11/13 04:15:18;;;;;;;12.00;4.43;;;;;;;11.49;100.00;101440.09;5147845;27;20410;-92
2022/11/13 04:17:45;;;;;;;15.55;5.78;;;;;;;11.41;100.00;101429.84;5148989;27;20051;-92
2022/11/13 04:20:11;;;;;;;12.63;5.13;;;;;;;11.57;100.00;101452.06;5134756;27;20051;-91
2022/11/13 04:22:38;;;;;;;15.43;6.55;;;;;;;11.54;100.00;101431.19;5133346;27;20063;-91
2022/11/13 04:25:05;;;;;;;12.23;5.82;;;;;;;11.84;100.00;101451.25;5153566;27;20041;-91
2022/11/13 04:27:32;;;;;;;15.10;7.03;;;;;;;11.71;100.00;101432.44;5140267;27;20104;-92
2022/11/13 04:29:59;;;;;;;12.70;4.68;;;;;;;11.92;100.00;101428.31;5153605;27;20433;-92
2022/11/13 04:32:25;;;;;;;11.77;4.50;;;;;;;11.96;100.00;101464.03;5152235;27;20050;-92
2022/11/13 04:34:52;;;;;;;14.15;6.30;;;;;;;11.78;100.00;101433.97;5153698;27;20095;-92
2022/11/13 04:37:19;;;;;;;15.40;5.93;;;;;;;11.81;100.00;101438.22;5155621;27;20053;-92
2022/11/13 04:39:46;;;;;;;17.73;7.03;;;;;;;12.07;100.00;101466.31;5153518;27;20058;-93
2022/11/13 04:44:57;;;;;;;14.57;7.13;;;;;;;11.95;100.00;101464.94;5141395;27;20043;-93
2022/11/13 04:47:24;;;;;;;25.15;9.93;;;;;;;11.85;100.00;101448.59;5154418;27;20051;-93
2022/11/13 04:49:51;;;;;;;16.50;7.53;;;;;;;11.98;100.00;101458.75;5153238;27;20055;-92
2022/11/13 04:52:18;;;;;;;18.73;8.07;;;;;;;12.10;100.00;101467.06;5135905;27;20044;-92
2022/11/13 04:54:44;;;;;;;15.82;8.20;;;;;;;11.82;100.00;101409.31;5138873;27;20046;-92
2022/11/13 04:57:11;;;;;;;15.80;8.43;;;;;;;12.18;100.00;101471.22;5153581;27;20054;-93
2022/11/13 04:59:38;;;;;;;15.43;7.65;;;;;;;12.11;100.00;101455.69;5154863;27;20484;-93
2022/11/13 05:02:05;;;;;;;16.80;7.60;;;;;;;12.14;100.00;101459.94;5145885;27;20050;-93
2022/11/13 05:04:32;;;;;;;16.30;7.22;;;;;;;11.95;100.00;101436.06;5145307;27;20084;-92
2022/11/13 05:06:58;;;;;;;14.85;5.90;;;;;;;12.09;100.00;101449.63;5148889;27;20451;-93
2022/11/13 05:09:25;;;;;;;23.25;9.93;;;;;;;12.04;100.00;101453.28;5153670;27;20052;-92
2022/11/13 05:11:52;;;;;;;12.68;6.90;;;;;;;12.27;100.00;101470.91;5149716;27;20157;-92
2022/11/13 05:14:19;;;;;;;14.05;7.00;;;;;;;12.23;100.00;101445.66;5139151;27;20064;-92
2022/11/13 05:16:46;;;;;;;14.05;7.53;;;;;;;12.37;100.00;101476.72;5141622;27;20406;-92
2022/11/13 05:19:12;;;;;;;21.40;10.77;;;;;;;12.30;100.00;101460.31;5143326;27;20411;-93
2022/11/13 05:21:39;;;;;;;22.35;12.52;;;;;;;12.42;100.00;101477.44;5142454;27;20046;-93
2022/11/13 05:24:09;;;;;;;23.45;13.27;;;;;;;12.49;100.00;101479.78;5151450;27;20080;-92
2022/11/13 05:26:37;;;;;;;20.55;12.00;;;;;;;12.36;100.00;101452.25;5147194;27;20051;-92
2022/11/13 05:29:06;;;;;;;24.70;11.18;;;;;;;12.41;100.00;101447.69;5141743;27;20134;-93
2022/11/13 05:31:33;;;;;;;30.65;18.48;;;;;;;12.59;100.00;101468.97;5147856;27;20083;-92
2022/11/13 05:34:03;;;;;;;35.65;19.60;;;;;;;12.62;100.00;101472.34;5151161;27;20096;-91
2022/11/13 05:36:32;;;;;;;40.65;21.70;;;;;;;12.49;100.00;101455.31;5140313;27;20392;-93
2022/11/13 05:38:59;;;;;;;33.55;20.30;;;;;;;12.24;100.00;101405.38;5139210;27;20126;-93
2022/11/13 05:41:26;;;;;;;46.45;27.15;;;;;;;12.32;100.00;101440.09;5143544;27;20046;-92
2022/11/13 05:43:56;;;;;;;41.67;21.83;;;;;;;12.58;100.00;101464.63;5147625;27;20110;-92
2022/11/13 05:46:27;;;;;;;47.85;26.55;;;;;;;12.51;100.00;101464.84;5150285;27;20472;-92
2022/11/13 05:49:00;;;;;;;49.05;22.67;;;;;;;12.56;100.00;101453.34;5144803;27;20057;-92
2022/11/13 05:51:33;;;;;;;46.33;24.30;;;;;;;12.39;100.00;101444.25;5136832;27;20050;-92
2022/11/13 05:54:00;;;;;;;38.55;18.98;;;;;;;12.58;100.00;101462.00;5143848;27;20402;-92
2022/11/13 05:56:30;;;;;;;38.75;17.70;;;;;;;12.48;100.00;101443.06;5149246;27;20065;-92
2022/11/13 05:58:58;;;;;;;44.60;20.35;;;;;;;12.50;100.00;101454.38;5142206;27;20051;-92
2022/11/13 06:01:31;;;;;;;43.25;21.38;;;;;;;12.49;100.00;101436.91;5145471;27;20047;-92
2022/11/13 06:04:00;;;;;;;41.08;20.92;;;;;;;12.32;100.00;101413.84;5138644;27;20496;-92
2022/11/13 06:06:28;;;;;;;36.15;19.35;;;;;;;12.25;100.00;101402.72;5153717;27;20089;-93
2022/11/13 06:08:57;;;;;;;39.42;17.02;;;;;;;12.46;100.00;101429.97;5142970;27;20103;-92
2022/11/13 06:11:25;;;;;;;43.75;20.67;;;;;;;12.37;100.00;101418.94;5142493;27;20046;-91
2022/11/13 06:13:54;;;;;;;54.13;23.00;;;;;;;12.41;100.00;101431.06;5137492;27;20157;-91
2022/11/13 06:16:24;;;;;;;53.25;24.15;;;;;;;12.50;100.00;101447.38;5145406;27;20069;-92
2022/11/13 06:19:00;;;;;;;41.50;17.98;;;;;;;12.57;100.00;101441.91;5149202;27;20503;-91
2022/11/13 06:21:29;;;;;;;48.42;24.70;;;;;;;12.50;100.00;101443.88;5158793;27;20062;-91
2022/11/13 06:23:58;;;;;;;37.20;19.52;;;;;;;12.62;100.00;101440.81;5144399;27;20039;-93
2022/11/13 06:26:28;;;;;;;38.70;19.77;;;;;;;12.60;100.00;101431.28;5142147;27;20104;-92
2022/11/13 06:28:56;;;;;;;37.92;17.00;;;;;;;12.48;100.00;101407.19;5145103;27;20054;-92
2022/11/13 06:31:29;;;;;;;38.75;17.95;;;;;;;12.59;100.00;101432.19;5142314;27;20054;-92
2022/11/13 06:33:58;;;;;;;27.92;14.73;;;;;;;12.57;100.00;101416.50;5141223;27;20043;-92
2022/11/13 06:36:30;;;;;;;52.72;23.30;;;;;;;12.65;100.00;101445.13;5142047;27;20476;-92
2022/11/13 06:38:57;;;;;;;32.17;16.00;;;;;;;12.57;100.00;101429.66;5140472;27;20050;-92
2022/11/13 06:41:28;;;;;;;38.13;20.35;;;;;;;12.45;100.00;101436.16;5140527;27;20042;-93
2022/11/13 06:43:56;;;;;;;40.53;19.77;;;;;;;12.48;100.00;101436.06;5140156;27;20082;-92
2022/11/13 06:46:29;;;;;;;28.02;13.40;;;;;;;12.62;100.00;101443.44;5145661;27;20051;-93
2022/11/13 06:48:56;;;;;;;29.35;14.32;;;;;;;12.31;100.00;101405.13;5137335;27;20141;-92
2022/11/13 06:51:26;;;;;;;40.83;20.35;;;;;;;12.26;100.00;101422.78;5133687;27;20043;-93
2022/11/13 06:53:54;;;;;;;43.50;21.85;;;;;;;12.31;100.00;101452.38;5154790;27;20114;-92
2022/11/13 06:56:21;;;;;;;44.00;20.67;;;;;;;12.39;100.00;101451.25;5141880;27;20046;-93
2022/11/13 06:58:48;;;;;;;32.15;17.88;;;;;;;12.21;100.00;101419.47;5146905;27;20052;-92
2022/11/13 07:01:20;;;;;;;35.13;18.70;;;;;;;12.23;100.00;101416.78;5149851;27;20042;-91
2022/11/13 07:03:47;;;;;;;52.55;27.67;;;;;;;12.18;100.00;101418.72;5146162;27;20122;-91
2022/11/13 07:06:17;;;;;;;38.75;20.73;;;;;;;12.36;100.00;101441.75;5147115;27;20467;-93
2022/11/13 07:08:45;;;;;;;40.38;20.48;;;;;;;12.37;100.00;101448.69;5144406;27;20406;-93
2022/11/13 07:11:16;;;;;;;41.35;18.33;;;;;;;12.26;100.00;101424.56;5153830;27;20065;-92
2022/11/13 07:13:43;;;;;;;43.75;21.40;;;;;;;12.40;100.00;101443.34;5153399;27;20149;-93
2022/11/13 07:16:12;;;;;;;34.15;17.50;;;;;;;12.44;100.00;101439.69;5146365;27;20055;-93
2022/11/13 07:18:51;;;;;;;36.83;17.05;;;;;;;12.23;100.00;101409.75;5138190;27;20043;-93
2022/11/13 07:21:20;;;;;;;31.30;16.02;;;;;;;12.41;100.00;101424.06;5140242;27;20538;-92
2022/11/13 07:23:48;;;;;;;34.15;15.48;;;;;;;12.11;100.00;101392.69;5145054;27;20130;-92
2022/11/13 07:26:16;;;;;;;41.47;16.23;;;;;;;12.47;100.00;101444.84;5149935;27;20131;-92
2022/11/13 07:28:44;;;;;;;26.52;13.77;;;;;;;12.54;100.00;101456.84;5145215;27;20064;-92
2022/11/13 07:31:12;;;;;;;26.25;12.52;;;;;;;12.18;100.00;101387.19;5148580;27;20055;-93
2022/11/13 07:33:39;;;;;;;50.75;20.10;;;;;;;12.41;100.00;101450.31;5149777;27;20074;-92
2022/11/13 07:36:07;;;;;;;28.70;14.25;;;;;;;12.30;100.00;101442.78;5143254;27;20099;-93
2022/11/13 07:38:34;;;;;;;52.90;19.80;;;;;;;12.38;100.00;101453.03;5149219;27;20054;-93
2022/11/13 07:41:01;;;;;;;32.55;16.30;;;;;;;12.38;100.00;101452.16;5141913;27;20103;-92
2022/11/13 07:43:28;;;;;;;33.28;16.15;;;;;;;12.41;100.00;101457.31;5145983;27;20051;-92
2022/11/13 07:45:58;;;;;;;20.90;10.02;;;;;;;12.49;100.00;101450.91;5141015;27;20537;-91
2022/11/13 07:48:26;;;;;;;24.58;12.30;;;;;;;12.50;100.00;101449.13;5139033;27;20066;-91
2022/11/13 07:50:54;;;;;;;19.10;9.80;;;;;;;12.49;100.00;101442.16;5145278;27;20095;-92
2022/11/13 07:53:22;;;;;;;22.42;10.13;;;;;;;12.62;100.00;101456.59;5146416;27;20047;-92
2022/11/13 07:55:49;;;;;;;29.77;13.98;;;;;;;12.48;100.00;101477.22;5141098;27;20135;-92
2022/11/13 07:58:16;;;;;;;30.10;14.75;;;;;;;12.44;100.00;101473.84;5141134;27;20078;-92
2022/11/13 08:00:43;;;;;;;20.55;10.27;;;;;;;12.32;100.00;101453.22;5147092;27;20046;-92
2022/11/13 08:03:15;;;;;;;19.42;9.75;;;;;;;12.51;100.00;101471.88;5143946;27;20126;-91
2022/11/13 08:05:42;;;;;;;25.27;11.48;;;;;;;12.57;100.00;101470.78;5146434;27;20051;-91
2022/11/13 08:08:16;;;;;;;20.58;10.30;;;;;;;12.60;100.00;101465.44;5144208;27;20043;-91
2022/11/13 08:10:43;;;;;;;15.48;6.97;;;;;;;12.45;100.00;101449.28;5143328;27;20113;-92
2022/11/13 08:13:10;;;;;;;18.00;8.93;;;;;;;12.30;100.00;101449.81;5147511;27;20780;-91
2022/11/13 08:15:37;;;;;;;16.35;8.95;;;;;;;12.38;100.00;101454.78;5149046;27;20038;-91
2022/11/13 08:18:05;;;;;;;34.40;16.27;;;;;;;12.38;100.00;101473.16;5149855;27;20469;-91
2022/11/13 08:20:32;;;;;;;23.05;11.20;;;;;;;12.49;100.00;101471.91;5144381;27;20057;-91
2022/11/13 08:23:03;;;;;;;26.10;13.77;;;;;;;12.05;100.00;101427.00;5145709;27;20073;-91
2022/11/13 08:25:32;;;;;;;25.77;12.95;;;;;;;12.40;100.00;101461.72;5141708;27;20042;-91
2022/11/13 08:27:59;;;;;;;25.35;11.32;;;;;;;12.42;100.00;101474.81;5144289;27;20095;-91
2022/11/13 08:30:27;;;;;;;23.10;11.70;;;;;;;12.36;100.00;101468.00;5142209;27;20564;-91
2022/11/13 08:32:54;;;;;;;21.90;10.27;;;;;;;12.37;100.00;101459.19;5148461;27;20624;-91
2022/11/13 08:35:21;;;;;;;18.58;9.00;;;;;;;12.37;100.00;101442.59;5142184;27;20391;-91
2022/11/13 08:38:03;;;;;;;19.85;9.50;;;;;;;12.65;100.00;101485.38;5146248;27;20472;-91
2022/11/13 08:40:30;;;;;;;18.75;8.05;;;;;;;12.66;100.00;101483.59;5143956;27;20491;-92
2022/11/13 08:43:02;;;;;;;17.42;8.27;;;;;;;12.46;100.00;101451.00;5136505;27;20051;-91
2022/11/13 08:45:29;;;;;;;14.63;7.25;;;;;;;12.67;100.00;101472.19;5142422;27;20129;-91
2022/11/13 08:48:01;;;;;;;18.63;9.20;;;;;;;12.64;100.00;101470.56;5145318;27;20057;-92
2022/11/13 08:50:29;;;;;;;30.35;14.00;;;;;;;12.41;100.00;101458.19;5157981;27;20074;-92
2022/11/13 08:52:58;;;;;;;21.25;10.48;;;;;;;12.53;100.00;101467.41;5142553;27;20047;-92
2022/11/13 08:55:25;;;;;;;20.85;10.82;;;;;;;12.44;100.00;101437.06;5142888;27;20045;-91
2022/11/13 08:57:53;;;;;;;21.70;10.65;;;;;;;12.67;100.00;101483.56;5147597;27;20042;-91
2022/11/13 09:00:19;;;;;;;19.30;8.65;;;;;;;12.63;100.00;101475.84;5140926;27;20443;-90
2022/11/13 09:02:47;;;;;;;23.73;12.40;;;;;;;12.55;100.00;101481.34;5146437;27;20045;-91
2022/11/13 09:05:13;;;;;;;19.38;9.20;;;;;;;12.56;100.00;101472.56;5141012;27;20043;-95
2022/11/13 09:07:40;;;;;;;19.88;9.25;;;;;;;12.63;100.00;101491.63;5145875;27;20047;-94
2022/11/13 09:10:07;;;;;;;23.27;10.63;;;;;;;12.38;100.00;101465.28;5135236;27;20105;-95
2022/11/13 09:12:34;;;;;;;19.00;8.73;;;;;;;12.32;100.00;101440.09;5146063;27;20059;-95
2022/11/13 09:15:00;;;;;;;15.82;8.15;;;;;;;12.51;100.00;101462.22;5135306;27;20096;-94
2022/11/13 09:17:28;;;;;;;24.25;10.82;;;;;;;12.42;100.00;101456.44;5141032;27;20090;-94
2022/11/13 09:19:57;;;;;;;18.55;9.32;;;;;;;12.31;100.00;101431.38;5135153;27;20062;-94
2022/11/13 09:22:29;;;;;;;16.83;8.63;;;;;;;12.63;100.00;101475.84;5133543;27;20449;-94
2022/11/13 09:24:56;;;;;;;18.40;8.32;;;;;;;12.48;100.00;101445.69;5150044;27;20046;-93
2022/11/13 09:27:23;;;;;;;15.30;7.28;;;;;;;12.61;100.00;101448.78;5143003;27;20050;-93
2022/11/13 09:29:50;;;;;;;16.88;9.52;;;;;;;12.62;100.00;101474.97;5150743;27;20058;-92
2022/11/13 09:32:21;;;;;;;17.08;8.13;;;;;;;12.68;100.00;101471.31;5148939;27;20134;-92
2022/11/13 09:34:48;;;;;;;17.00;7.97;;;;;;;12.48;100.00;101453.56;5146811;27;20046;-92
2022/11/13 09:37:15;;;;;;;14.25;7.05;;;;;;;12.59;100.00;101485.59;5140096;27;20058;-91
2022/11/13 09:39:42;;;;;;;13.50;6.43;;;;;;;12.53;100.00;101483.19;5138470;27;20073;-92
2022/11/13 09:42:23;;;;;;;16.23;7.97;;;;;;;12.50;100.00;101467.50;5147748;27;20727;-92
2022/11/13 09:45:09;;;;;;;21.83;11.45;;;;;;;12.41;100.00;101487.09;5147137;27;20069;-92
2022/11/13 09:47:40;;;;;;;27.92;14.00;;;;;;;12.18;100.00;101466.81;5159151;27;20047;-93
2022/11/13 09:50:28;;;;;;;18.13;8.55;;;;;;;12.49;100.00;101477.16;5152723;27;20054;-92
2022/11/13 09:52:55;;;;;;;16.83;9.48;;;;;;;12.45;100.00;101472.09;5144777;27;20055;-93
2022/11/13 09:55:29;;;;;;;14.63;7.45;;;;;;;12.64;100.00;101477.56;5152476;27;20399;-93
2022/11/13 09:58:14;;;;;;;19.98;9.55;;;;;;;12.64;100.00;101485.44;5146158;27;20129;-93
2022/11/13 10:00:41;;;;;;;18.75;7.95;;;;;;;12.39;100.00;101451.25;5139799;27;20061;-93
2022/11/13 10:03:43;;;;;;;17.92;8.55;;;;;;;12.67;100.00;101477.44;5145240;27;20054;-94
2022/11/13 10:07:03;;;;;;;21.23;9.60;;;;;;;12.67;100.00;101452.03;5148594;27;20401;-92
2022/11/13 10:09:46;;;;;;;13.93;6.75;;;;;;;12.76;100.00;101466.63;5147215;27;20054;-93
2022/11/13 10:12:14;;;;;;;16.23;8.52;;;;;;;12.71;100.00;101456.28;5142904;27;20138;-93
2022/11/13 10:14:45;;;;;;;30.67;10.65;;;;;;;12.77;100.00;101470.97;5143730;27;20095;-94
2022/11/13 10:17:30;;;;;;;14.48;7.45;;;;;;;12.66;100.00;101434.56;5149686;27;20384;-94
2022/11/13 10:20:14;;;;;;;13.75;7.18;;;;;;;12.80;100.00;101435.84;5149488;27;20047;-95
2022/11/13 10:22:56;;;;;;;14.07;6.40;;;;;;;12.98;100.00;101471.09;5145415;27;20047;-94
2022/11/13 10:25:27;;;;;;;18.60;9.93;;;;;;;12.60;100.00;101429.50;5151481;27;20054;-94
2022/11/13 10:27:55;;;;;;;13.65;6.25;;;;;;;12.83;100.00;101469.91;5144114;27;20073;-94
2022/11/13 10:30:25;;;;;;;15.40;8.30;;;;;;;12.47;100.00;101425.63;5146048;27;20038;-95
2022/11/13 10:32:53;;;;;;;18.63;8.10;;;;;;;12.48;100.00;101436.06;5158015;27;20479;-95
2022/11/13 10:35:43;;;;;;;17.30;7.63;;;;;;;12.65;100.00;101468.78;5148670;27;20043;-95
2022/11/13 10:38:43;;;;;;;14.57;6.78;;;;;;;12.82;100.00;101457.66;5144664;27;20436;-96
2022/11/13 10:41:18;;;;;;;14.88;7.57;;;;;;;12.82;100.00;101447.13;5146957;27;20046;-94
2022/11/13 10:44:00;;;;;;;23.63;11.20;;;;;;;12.78;100.00;101445.53;5158529;27;20046;-95
2022/11/13 10:46:30;;;;;;;47.40;13.02;;;;;;;12.35;100.00;101425.09;5151914;27;20077;-95
2022/11/13 10:48:58;;;;;;;16.48;7.50;;;;;;;12.53;100.00;101428.00;5151538;27;20046;-95
2022/11/13 10:51:28;;;;;;;13.27;5.63;;;;;;;12.77;100.00;101443.84;5143840;27;20062;-94
2022/11/13 10:53:57;;;;;;;36.53;9.70;;;;;;;12.65;100.00;101430.22;5149433;27;20124;-94
2022/11/13 10:56:29;;;;;;;27.75;9.63;;;;;;;12.54;100.00;101433.22;5152640;27;20046;-95
2022/11/13 10:59:15;;;;;;;40.20;11.23;;;;;;;12.43;100.00;101432.75;5147776;27;20568;-94
2022/11/13 11:01:45;;;;;;;23.95;9.30;;;;;;;12.63;100.00;101437.28;5151547;27;20046;-93
2022/11/13 11:04:22;;;;;;;20.67;8.20;;;;;;;12.57;100.00;101434.00;5142113;27;20355;-94
2022/11/13 11:06:50;;;;;;;16.40;7.45;;;;;;;12.71;100.00;101426.50;5145554;27;20055;-89
2022/11/13 11:09:40;;;;;;;16.40;6.35;;;;;;;12.55;100.00;101423.56;5140559;27;20043;-90
2022/11/13 11:12:19;;;;;;;31.90;9.40;;;;;;;12.53;100.00;101420.97;5151107;27;20142;-93
2022/11/13 11:14:55;;;;;;;20.40;8.73;;;;;;;12.39;100.00;101391.72;5145578;27;20398;-93
2022/11/13 11:17:55;;;;;;;18.30;8.57;;;;;;;12.59;100.00;101413.81;5147396;27;20062;-94
2022/11/13 11:20:51;;;;;;;15.50;6.60;;;;;;;12.90;100.00;101418.81;5133831;27;20479;-93
2022/11/13 11:23:46;;;;;;;22.92;10.38;;;;;;;12.68;100.00;101389.84;5138800;27;20067;-93
2022/11/13 11:26:31;;;;;;;21.73;10.02;;;;;;;12.79;100.00;101410.47;5150207;27;20468;-94